sensor_id;sensor_type;location;lat;lon;timestamp;pressure;altitude;pressure_sealevel;temperature;humidity
28510;BME280;15723;55.684;37.928;2023-02-13T00:02:10;100409.84;;;-4.94;71.59
28510;BME280;15723;55.684;37.928;2023-02-13T00:04:36;100413.09;;;-5.33;71.93
28510;BME280;15723;55.684;37.928;2023-02-13T00:07:02;100399.88;;;-5.31;72.46
28510;BME280;15723;55.684;37.928;2023-02-13T00:09:28;100400.00;;;-5.15;72.04
28510;BME280;15723;55.684;37.928;2023-02-13T00:11:54;100381.34;;;-5.30;72.10
28510;BME280;15723;55.684;37.928;2023-02-13T00:14:20;100374.50;;;-5.00;71.96
28510;BME280;15723;55.684;37.928;2023-02-13T00:16:46;100372.03;;;-4.67;72.01
28510;BME280;15723;55.684;37.928;2023-02-13T00:19:11;100365.78;;;-4.83;71.86
28510;BME280;15723;55.684;37.928;2023-02-13T00:21:37;100363.00;;;-5.03;71.69
28510;BME280;15723;55.684;37.928;2023-02-13T00:24:03;100359.50;;;-5.00;72.10
28510;BME280;15723;55.684;37.928;2023-02-13T00:26:29;100364.84;;;-4.88;71.91
28510;BME280;15723;55.684;37.928;2023-02-13T00:28:55;100363.94;;;-4.90;71.90
28510;BME280;15723;55.684;37.928;2023-02-13T00:31:23;100355.25;;;-4.69;71.97
28510;BME280;15723;55.684;37.928;2023-02-13T00:33:49;100349.09;;;-4.53;72.41
28510;BME280;15723;55.684;37.928;2023-02-13T00:36:16;100343.63;;;-4.92;72.39
28510;BME280;15723;55.684;37.928;2023-02-13T00:38:44;100327.75;;;-4.92;73.27
28510;BME280;15723;55.684;37.928;2023-02-13T00:41:11;100327.72;;;-5.00;72.86
28510;BME280;15723;55.684;37.928;2023-02-13T00:43:39;100321.78;;;-4.43;73.04
28510;BME280;15723;55.684;37.928;2023-02-13T00:46:05;100334.03;;;-4.69;72.41
28510;BME280;15723;55.684;37.928;2023-02-13T00:48:32;100328.78;;;-4.51;72.23
28510;BME280;15723;55.684;37.928;2023-02-13T00:50:58;100319.13;;;-4.43;71.41
28510;BME280;15723;55.684;37.928;2023-02-13T00:53:25;100320.81;;;-4.66;71.57
28510;BME280;15723;55.684;37.928;2023-02-13T00:55:51;100313.66;;;-4.84;71.51
28510;BME280;15723;55.684;37.928;2023-02-13T00:58:17;100302.25;;;-4.74;72.37
28510;BME280;15723;55.684;37.928;2023-02-13T01:00:43;100294.34;;;-4.55;72.44
28510;BME280;15723;55.684;37.928;2023-02-13T01:03:12;100302.28;;;-4.61;72.11
28510;BME280;15723;55.684;37.928;2023-02-13T01:05:38;100296.13;;;-4.48;72.12
28510;BME280;15723;55.684;37.928;2023-02-13T01:08:04;100299.63;;;-4.54;72.32
28510;BME280;15723;55.684;37.928;2023-02-13T01:10:32;100291.75;;;-4.22;71.76
28510;BME280;15723;55.684;37.928;2023-02-13T01:12:58;100291.75;;;-4.19;71.58
28510;BME280;15723;55.684;37.928;2023-02-13T01:15:25;100289.09;;;-4.34;71.43
28510;BME280;15723;55.684;37.928;2023-02-13T01:17:52;100294.44;;;-4.08;71.68
28510;BME280;15723;55.684;37.928;2023-02-13T01:20:18;100283.81;;;-4.17;71.35
28510;BME280;15723;55.684;37.928;2023-02-13T01:22:44;100279.41;;;-4.00;71.79
28510;BME280;15723;55.684;37.928;2023-02-13T01:25:10;100274.09;;;-3.82;71.68
28510;BME280;15723;55.684;37.928;2023-02-13T01:27:36;100274.97;;;-4.25;72.24
28510;BME280;15723;55.684;37.928;2023-02-13T01:30:04;100276.75;;;-4.23;71.72
28510;BME280;15723;55.684;37.928;2023-02-13T01:32:30;100268.78;;;-3.83;71.78
28510;BME280;15723;55.684;37.928;2023-02-13T01:34:56;100266.97;;;-4.51;73.17
28510;BME280;15723;55.684;37.928;2023-02-13T01:37:21;100267.00;;;-4.45;73.18
28510;BME280;15723;55.684;37.928;2023-02-13T01:39:47;100257.22;;;-4.69;73.01
28510;BME280;15723;55.684;37.928;2023-02-13T01:42:16;100252.00;;;-4.32;72.85
28510;BME280;15723;55.684;37.928;2023-02-13T01:44:49;100245.75;;;-4.51;72.14
28510;BME280;15723;55.684;37.928;2023-02-13T01:47:19;100246.69;;;-4.37;73.05
28510;BME280;15723;55.684;37.928;2023-02-13T01:49:47;100238.75;;;-4.19;72.22
28510;BME280;15723;55.684;37.928;2023-02-13T01:52:14;100231.63;;;-4.47;71.90
28510;BME280;15723;55.684;37.928;2023-02-13T01:54:41;100234.31;;;-4.30;72.15
28510;BME280;15723;55.684;37.928;2023-02-13T01:57:12;100220.19;;;-4.45;72.91
28510;BME280;15723;55.684;37.928;2023-02-13T01:59:41;100212.22;;;-4.52;72.70
28510;BME280;15723;55.684;37.928;2023-02-13T02:02:09;100217.50;;;-4.46;73.47
28510;BME280;15723;55.684;37.928;2023-02-13T02:04:36;100205.19;;;-4.38;72.29
28510;BME280;15723;55.684;37.928;2023-02-13T02:07:10;100210.44;;;-4.52;72.22
28510;BME280;15723;55.684;37.928;2023-02-13T02:09:37;100203.38;;;-4.53;72.50
28510;BME280;15723;55.684;37.928;2023-02-13T02:14:34;100198.09;;;-4.27;72.15
28510;BME280;15723;55.684;37.928;2023-02-13T02:17:00;100193.69;;;-4.43;71.39
28510;BME280;15723;55.684;37.928;2023-02-13T02:22:36;100185.72;;;-4.31;72.31
28510;BME280;15723;55.684;37.928;2023-02-13T02:51:24;100146.84;;;-4.26;71.71
28510;BME280;15723;55.684;37.928;2023-02-13T02:54:06;100137.09;;;-3.99;70.71
28510;BME280;15723;55.684;37.928;2023-02-13T02:56:57;100139.75;;;-4.13;71.58
28510;BME280;15723;55.684;37.928;2023-02-13T02:59:27;100141.53;;;-4.11;70.76
28510;BME280;15723;55.684;37.928;2023-02-13T03:02:12;100128.31;;;-4.39;71.14
28510;BME280;15723;55.684;37.928;2023-02-13T03:05:23;100125.59;;;-3.92;70.89
28510;BME280;15723;55.684;37.928;2023-02-13T03:08:09;100119.44;;;-4.19;70.56
28510;BME280;15723;55.684;37.928;2023-02-13T03:10:35;100111.38;;;-3.79;71.08
28510;BME280;15723;55.684;37.928;2023-02-13T03:13:38;100115.81;;;-3.77;70.45
28510;BME280;15723;55.684;37.928;2023-02-13T03:16:05;100114.13;;;-4.14;71.81
28510;BME280;15723;55.684;37.928;2023-02-13T03:18:55;100112.31;;;-3.88;71.17
28510;BME280;15723;55.684;37.928;2023-02-13T03:21:44;100107.06;;;-4.06;71.31
28510;BME280;15723;55.684;37.928;2023-02-13T03:29:52;100102.66;;;-4.07;71.54
28510;BME280;15723;55.684;37.928;2023-02-13T03:35:07;100103.41;;;-3.73;70.99
28510;BME280;15723;55.684;37.928;2023-02-13T03:38:15;100091.88;;;-3.61;70.79
28510;BME280;15723;55.684;37.928;2023-02-13T03:41:26;100082.28;;;-3.94;71.33
28510;BME280;15723;55.684;37.928;2023-02-13T03:46:19;100086.72;;;-4.04;71.76
28510;BME280;15723;55.684;37.928;2023-02-13T03:48:45;100073.44;;;-3.92;70.97
28510;BME280;15723;55.684;37.928;2023-02-13T03:51:38;100075.25;;;-4.06;72.35
28510;BME280;15723;55.684;37.928;2023-02-13T03:54:09;100069.03;;;-3.97;71.63
28510;BME280;15723;55.684;37.928;2023-02-13T03:56:38;100056.66;;;-3.95;71.70
28510;BME280;15723;55.684;37.928;2023-02-13T03:59:33;100056.56;;;-3.77;73.31
28510;BME280;15723;55.684;37.928;2023-02-13T04:04:34;100054.59;;;-3.37;72.62
28510;BME280;15723;55.684;37.928;2023-02-13T04:07:05;100060.00;;;-3.54;73.05
28510;BME280;15723;55.684;37.928;2023-02-13T04:09:32;100054.59;;;-3.40;72.97
28510;BME280;15723;55.684;37.928;2023-02-13T04:12:14;100054.63;;;-3.44;72.49
28510;BME280;15723;55.684;37.928;2023-02-13T04:17:09;100046.59;;;-3.28;72.89
28510;BME280;15723;55.684;37.928;2023-02-13T04:19:37;100039.56;;;-3.38;73.18
28510;BME280;15723;55.684;37.928;2023-02-13T04:22:03;100043.06;;;-3.36;72.97
28510;BME280;15723;55.684;37.928;2023-02-13T04:24:29;100041.25;;;-3.23;73.16
28510;BME280;15723;55.684;37.928;2023-02-13T04:26:55;100042.09;;;-3.18;73.05
28510;BME280;15723;55.684;37.928;2023-02-13T04:29:21;100031.50;;;-3.20;73.76
28510;BME280;15723;55.684;37.928;2023-02-13T04:31:48;100025.25;;;-3.16;73.41
28510;BME280;15723;55.684;37.928;2023-02-13T04:34:14;100004.00;;;-3.14;74.96
28510;BME280;15723;55.684;37.928;2023-02-13T04:36:40;99994.06;;;-2.89;73.33
28510;BME280;15723;55.684;37.928;2023-02-13T04:39:06;99992.38;;;-2.96;72.71
28510;BME280;15723;55.684;37.928;2023-02-13T04:41:32;99999.50;;;-3.06;72.59
28510;BME280;15723;55.684;37.928;2023-02-13T04:43:58;100010.13;;;-3.04;72.12
28510;BME280;15723;55.684;37.928;2023-02-13T04:46:24;100000.59;;;-3.31;71.67
28510;BME280;15723;55.684;37.928;2023-02-13T04:48:50;100004.00;;;-3.16;72.88
28510;BME280;15723;55.684;37.928;2023-02-13T04:51:16;100001.50;;;-3.38;73.18
28510;BME280;15723;55.684;37.928;2023-02-13T04:53:42;99992.41;;;-3.05;72.77
28510;BME280;15723;55.684;37.928;2023-02-13T04:56:08;99994.19;;;-3.06;73.30
28510;BME280;15723;55.684;37.928;2023-02-13T04:58:34;99978.75;;;-2.60;73.19
28510;BME280;15723;55.684;37.928;2023-02-13T05:01:00;99974.97;;;-1.68;72.27
28510;BME280;15723;55.684;37.928;2023-02-13T05:03:26;99972.00;;;-1.45;69.78
28510;BME280;15723;55.684;37.928;2023-02-13T05:05:52;99960.59;;;-0.98;68.89
28510;BME280;15723;55.684;37.928;2023-02-13T05:08:18;99955.00;;;-0.35;67.83
28510;BME280;15723;55.684;37.928;2023-02-13T05:10:44;99943.59;;;-0.43;66.97
28510;BME280;15723;55.684;37.928;2023-02-13T05:13:10;99942.91;;;-0.10;65.92
28510;BME280;15723;55.684;37.928;2023-02-13T05:15:36;99930.03;;;0.11;66.19
28510;BME280;15723;55.684;37.928;2023-02-13T05:18:02;99936.31;;;0.08;65.59
28510;BME280;15723;55.684;37.928;2023-02-13T05:20:28;99926.34;;;-0.25;65.98
28510;BME280;15723;55.684;37.928;2023-02-13T05:22:54;99916.38;;;-0.16;65.09
28510;BME280;15723;55.684;37.928;2023-02-13T05:25:39;99914.53;;;-0.14;65.26
28510;BME280;15723;55.684;37.928;2023-02-13T05:28:06;99905.88;;;0.17;64.99
28510;BME280;15723;55.684;37.928;2023-02-13T05:30:52;99918.94;;;-0.11;63.91
28510;BME280;15723;55.684;37.928;2023-02-13T05:33:18;99921.72;;;0.24;63.85
28510;BME280;15723;55.684;37.928;2023-02-13T05:35:43;99925.09;;;0.32;63.23
28510;BME280;15723;55.684;37.928;2023-02-13T05:38:09;99923.13;;;0.42;62.93
28510;BME280;15723;55.684;37.928;2023-02-13T05:40:35;99923.56;;;0.22;62.74
28510;BME280;15723;55.684;37.928;2023-02-13T05:43:01;99917.34;;;0.22;63.09
28510;BME280;15723;55.684;37.928;2023-02-13T05:45:27;99923.78;;;0.12;63.19
28510;BME280;15723;55.684;37.928;2023-02-13T05:47:53;99920.00;;;0.22;62.51
28510;BME280;15723;55.684;37.928;2023-02-13T05:50:19;99916.34;;;0.26;63.02
28510;BME280;15723;55.684;37.928;2023-02-13T05:52:45;99919.03;;;0.63;62.14
28510;BME280;15723;55.684;37.928;2023-02-13T05:55:11;99918.50;;;0.49;62.17
28510;BME280;15723;55.684;37.928;2023-02-13T05:57:38;99907.53;;;0.97;61.47
28510;BME280;15723;55.684;37.928;2023-02-13T06:00:04;99911.16;;;0.94;60.39
28510;BME280;15723;55.684;37.928;2023-02-13T06:02:31;99919.25;;;0.91;61.88
28510;BME280;15723;55.684;37.928;2023-02-13T06:04:57;99899.22;;;0.72;61.03
28510;BME280;15723;55.684;37.928;2023-02-13T06:07:23;99898.84;;;0.88;61.28
28510;BME280;15723;55.684;37.928;2023-02-13T06:09:52;99897.78;;;1.28;60.63
28510;BME280;15723;55.684;37.928;2023-02-13T06:12:17;99902.59;;;1.15;61.13
28510;BME280;15723;55.684;37.928;2023-02-13T06:14:43;99903.44;;;1.17;60.64
28510;BME280;15723;55.684;37.928;2023-02-13T06:17:09;99910.88;;;1.39;60.52
28510;BME280;15723;55.684;37.928;2023-02-13T06:19:35;99910.13;;;1.66;59.63
28510;BME280;15723;55.684;37.928;2023-02-13T06:22:01;99899.56;;;1.62;59.39
28510;BME280;15723;55.684;37.928;2023-02-13T06:24:27;99900.50;;;1.27;59.62
28510;BME280;15723;55.684;37.928;2023-02-13T06:26:52;99901.50;;;1.22;61.03
28510;BME280;15723;55.684;37.928;2023-02-13T06:29:18;99893.06;;;1.38;60.58
28510;BME280;15723;55.684;37.928;2023-02-13T06:31:44;99885.88;;;0.72;60.60
28510;BME280;15723;55.684;37.928;2023-02-13T06:34:10;99894.56;;;1.49;60.38
28510;BME280;15723;55.684;37.928;2023-02-13T06:36:37;99888.75;;;1.65;60.44
28510;BME280;15723;55.684;37.928;2023-02-13T06:39:03;99882.75;;;1.24;60.50
28510;BME280;15723;55.684;37.928;2023-02-13T06:41:29;99877.16;;;1.33;60.76
28510;BME280;15723;55.684;37.928;2023-02-13T06:43:55;99875.28;;;1.03;61.32
28510;BME280;15723;55.684;37.928;2023-02-13T06:46:21;99871.84;;;1.32;60.95
28510;BME280;15723;55.684;37.928;2023-02-13T06:48:47;99864.25;;;1.47;60.73
28510;BME280;15723;55.684;37.928;2023-02-13T06:51:13;99858.22;;;1.08;61.01
28510;BME280;15723;55.684;37.928;2023-02-13T06:53:39;99853.88;;;1.37;61.35
28510;BME280;15723;55.684;37.928;2023-02-13T06:56:04;99845.38;;;1.53;61.09
28510;BME280;15723;55.684;37.928;2023-02-13T06:58:31;99832.25;;;1.75;60.22
28510;BME280;15723;55.684;37.928;2023-02-13T07:00:58;99839.31;;;1.78;59.87
28510;BME280;15723;55.684;37.928;2023-02-13T07:03:24;99826.44;;;1.91;60.41
28510;BME280;15723;55.684;37.928;2023-02-13T07:05:50;99834.91;;;2.05;59.95
28510;BME280;15723;55.684;37.928;2023-02-13T07:08:18;99837.69;;;2.02;59.38
28510;BME280;15723;55.684;37.928;2023-02-13T07:10:44;99819.28;;;2.19;59.70
28510;BME280;15723;55.684;37.928;2023-02-13T07:13:10;99821.59;;;2.03;59.61
28510;BME280;15723;55.684;37.928;2023-02-13T07:15:36;99821.19;;;2.15;59.32
28510;BME280;15723;55.684;37.928;2023-02-13T07:18:03;99817.19;;;2.01;59.47
28510;BME280;15723;55.684;37.928;2023-02-13T07:20:29;99816.53;;;1.94;59.45
28510;BME280;15723;55.684;37.928;2023-02-13T07:22:58;99818.13;;;2.00;59.71
28510;BME280;15723;55.684;37.928;2023-02-13T07:25:24;99816.38;;;1.99;59.49
28510;BME280;15723;55.684;37.928;2023-02-13T07:27:50;99807.47;;;1.98;59.17
28510;BME280;15723;55.684;37.928;2023-02-13T07:30:16;99809.16;;;2.01;59.38
28510;BME280;15723;55.684;37.928;2023-02-13T07:32:42;99805.38;;;2.36;59.03
28510;BME280;15723;55.684;37.928;2023-02-13T07:35:08;99802.59;;;2.39;59.16
28510;BME280;15723;55.684;37.928;2023-02-13T07:37:34;99796.00;;;2.21;58.96
28510;BME280;15723;55.684;37.928;2023-02-13T07:40:00;99803.63;;;2.61;58.35
28510;BME280;15723;55.684;37.928;2023-02-13T07:42:25;99801.75;;;2.37;59.40
28510;BME280;15723;55.684;37.928;2023-02-13T07:44:51;99797.84;;;2.19;59.59
28510;BME280;15723;55.684;37.928;2023-02-13T07:47:17;99793.47;;;2.71;58.45
28510;BME280;15723;55.684;37.928;2023-02-13T07:49:43;99789.03;;;2.70;58.33
28510;BME280;15723;55.684;37.928;2023-02-13T07:52:09;99782.31;;;2.83;57.67
28510;BME280;15723;55.684;37.928;2023-02-13T07:54:35;99779.66;;;3.08;57.27
28510;BME280;15723;55.684;37.928;2023-02-13T07:57:02;99779.38;;;3.16;57.67
28510;BME280;15723;55.684;37.928;2023-02-13T07:59:28;99773.78;;;3.22;57.81
28510;BME280;15723;55.684;37.928;2023-02-13T08:01:54;99771.09;;;3.22;57.07
28510;BME280;15723;55.684;37.928;2023-02-13T08:04:20;99770.63;;;3.34;56.82
28510;BME280;15723;55.684;37.928;2023-02-13T08:06:46;99777.91;;;3.07;57.65
28510;BME280;15723;55.684;37.928;2023-02-13T08:09:18;99779.66;;;3.08;57.18
28510;BME280;15723;55.684;37.928;2023-02-13T08:12:04;99773.03;;;3.18;57.45
28510;BME280;15723;55.684;37.928;2023-02-13T08:14:30;99767.84;;;3.13;56.88
28510;BME280;15723;55.684;37.928;2023-02-13T08:16:58;99760.84;;;3.33;57.08
28510;BME280;15723;55.684;37.928;2023-02-13T08:19:25;99760.13;;;3.04;57.60
28510;BME280;15723;55.684;37.928;2023-02-13T08:21:51;99749.56;;;3.70;57.02
28510;BME280;15723;55.684;37.928;2023-02-13T08:24:16;99736.00;;;3.74;56.63
28510;BME280;15723;55.684;37.928;2023-02-13T08:26:42;99749.06;;;3.60;57.26
28510;BME280;15723;55.684;37.928;2023-02-13T08:29:08;99741.06;;;4.04;56.62
28510;BME280;15723;55.684;37.928;2023-02-13T08:31:34;99734.88;;;3.80;56.98
28510;BME280;15723;55.684;37.928;2023-02-13T08:34:00;99736.41;;;3.17;57.54
28510;BME280;15723;55.684;37.928;2023-02-13T08:36:26;99713.25;;;3.61;56.94
28510;BME280;15723;55.684;37.928;2023-02-13T08:38:52;99714.69;;;3.70;57.14
28510;BME280;15723;55.684;37.928;2023-02-13T08:41:18;99709.72;;;4.04;56.63
28510;BME280;15723;55.684;37.928;2023-02-13T08:43:47;99706.59;;;4.15;56.17
28510;BME280;15723;55.684;37.928;2023-02-13T08:46:13;99706.09;;;4.27;56.19
28510;BME280;15723;55.684;37.928;2023-02-13T08:48:39;99695.75;;;4.38;55.90
28510;BME280;15723;55.684;37.928;2023-02-13T08:51:06;99688.41;;;4.22;56.50
28510;BME280;15723;55.684;37.928;2023-02-13T08:53:32;99686.53;;;4.02;57.31
28510;BME280;15723;55.684;37.928;2023-02-13T08:55:58;99684.38;;;4.12;56.64
28510;BME280;15723;55.684;37.928;2023-02-13T08:58:24;99693.69;;;3.58;56.62
28510;BME280;15723;55.684;37.928;2023-02-13T09:00:50;99692.97;;;4.20;56.29
28510;BME280;15723;55.684;37.928;2023-02-13T09:03:16;99694.78;;;4.19;56.74
28510;BME280;15723;55.684;37.928;2023-02-13T09:05:42;99685.81;;;3.76;58.06
28510;BME280;15723;55.684;37.928;2023-02-13T09:08:08;99680.69;;;4.34;56.95
28510;BME280;15723;55.684;37.928;2023-02-13T09:10:36;99677.31;;;4.51;56.43
28510;BME280;15723;55.684;37.928;2023-02-13T09:13:03;99670.34;;;4.46;56.79
28510;BME280;15723;55.684;37.928;2023-02-13T09:15:29;99669.03;;;4.56;56.57
28510;BME280;15723;55.684;37.928;2023-02-13T09:17:55;99667.09;;;4.59;56.95
28510;BME280;15723;55.684;37.928;2023-02-13T09:20:21;99679.63;;;4.38;56.84
28510;BME280;15723;55.684;37.928;2023-02-13T09:22:47;99664.84;;;4.06;57.75
28510;BME280;15723;55.684;37.928;2023-02-13T09:25:13;99666.06;;;3.99;57.19
28510;BME280;15723;55.684;37.928;2023-02-13T09:27:39;99654.91;;;4.08;57.44
28510;BME280;15723;55.684;37.928;2023-02-13T09:30:05;99655.75;;;3.45;59.08
28510;BME280;15723;55.684;37.928;2023-02-13T09:32:31;99659.06;;;3.95;59.28
28510;BME280;15723;55.684;37.928;2023-02-13T09:34:58;99649.06;;;4.41;58.89
28510;BME280;15723;55.684;37.928;2023-02-13T09:37:25;99647.63;;;4.12;58.17
28510;BME280;15723;55.684;37.928;2023-02-13T09:39:51;99642.44;;;4.50;58.30
28510;BME280;15723;55.684;37.928;2023-02-13T09:42:21;99625.69;;;4.63;58.13
28510;BME280;15723;55.684;37.928;2023-02-13T09:44:50;99628.06;;;4.90;58.19
28510;BME280;15723;55.684;37.928;2023-02-13T09:49:57;99614.63;;;5.09;57.85
28510;BME280;15723;55.684;37.928;2023-02-13T09:52:26;99613.91;;;4.46;59.20
28510;BME280;15723;55.684;37.928;2023-02-13T09:54:53;99599.50;;;4.87;58.54
28510;BME280;15723;55.684;37.928;2023-02-13T09:57:24;99593.13;;;5.27;57.37
28510;BME280;15723;55.684;37.928;2023-02-13T09:59:55;99585.41;;;5.01;58.07
28510;BME280;15723;55.684;37.928;2023-02-13T10:10:33;99579.16;;;5.38;57.34
28510;BME280;15723;55.684;37.928;2023-02-13T10:13:10;99581.84;;;5.38;57.75
28510;BME280;15723;55.684;37.928;2023-02-13T10:16:32;99575.28;;;5.62;57.04
28510;BME280;15723;55.684;37.928;2023-02-13T10:21:42;99573.94;;;5.52;56.76
28510;BME280;15723;55.684;37.928;2023-02-13T10:26:56;99567.53;;;5.00;57.87
28510;BME280;15723;55.684;37.928;2023-02-13T10:32:14;99567.63;;;5.53;57.71
28510;BME280;15723;55.684;37.928;2023-02-13T10:34:45;99568.63;;;5.70;57.36
28510;BME280;15723;55.684;37.928;2023-02-13T10:37:16;99561.19;;;5.39;58.47
28510;BME280;15723;55.684;37.928;2023-02-13T10:39:45;99566.41;;;5.42;57.35
28510;BME280;15723;55.684;37.928;2023-02-13T10:42:30;99562.91;;;5.40;57.80
28510;BME280;15723;55.684;37.928;2023-02-13T10:47:44;99549.38;;;5.41;57.53
28510;BME280;15723;55.684;37.928;2023-02-13T10:50:33;99547.88;;;5.36;58.12
28510;BME280;15723;55.684;37.928;2023-02-13T11:03:42;99513.13;;;5.48;59.10
28510;BME280;15723;55.684;37.928;2023-02-13T11:06:14;99508.59;;;5.85;57.83
28510;BME280;15723;55.684;37.928;2023-02-13T11:08:42;99511.75;;;5.76;58.33
28510;BME280;15723;55.684;37.928;2023-02-13T11:14:17;99501.31;;;5.70;58.64
28510;BME280;15723;55.684;37.928;2023-02-13T11:19:46;99490.97;;;5.43;59.27
28510;BME280;15723;55.684;37.928;2023-02-13T11:22:10;99477.94;;;5.70;58.74
28510;BME280;15723;55.684;37.928;2023-02-13T11:24:39;99485.50;;;5.98;58.09
28510;BME280;15723;55.684;37.928;2023-02-13T11:27:07;99492.13;;;5.74;58.94
28510;BME280;15723;55.684;37.928;2023-02-13T11:29:35;99490.28;;;5.74;59.23
28510;BME280;15723;55.684;37.928;2023-02-13T11:32:17;99502.66;;;5.61;59.91
28510;BME280;15723;55.684;37.928;2023-02-13T11:34:43;99496.59;;;5.20;60.47
28510;BME280;15723;55.684;37.928;2023-02-13T11:37:14;99494.97;;;5.71;58.94
28510;BME280;15723;55.684;37.928;2023-02-13T11:39:41;99498.88;;;5.29;59.83
28510;BME280;15723;55.684;37.928;2023-02-13T11:42:14;99484.63;;;5.08;60.42
28510;BME280;15723;55.684;37.928;2023-02-13T11:44:41;99478.53;;;5.05;59.99
28510;BME280;15723;55.684;37.928;2023-02-13T11:47:09;99484.94;;;5.55;59.34
28510;BME280;15723;55.684;37.928;2023-02-13T11:49:36;99478.19;;;4.56;61.42
28510;BME280;15723;55.684;37.928;2023-02-13T11:52:26;99465.09;;;4.67;61.78
28510;BME280;15723;55.684;37.928;2023-02-13T11:54:58;99458.03;;;5.02;61.54
28510;BME280;15723;55.684;37.928;2023-02-13T11:57:29;99462.66;;;5.17;61.51
28510;BME280;15723;55.684;37.928;2023-02-13T11:59:56;99457.72;;;5.27;61.15
28510;BME280;15723;55.684;37.928;2023-02-13T12:02:29;99448.78;;;5.78;59.79
28510;BME280;15723;55.684;37.928;2023-02-13T12:05:16;99450.94;;;5.18;61.24
28510;BME280;15723;55.684;37.928;2023-02-13T12:07:44;99438.41;;;5.53;60.71
28510;BME280;15723;55.684;37.928;2023-02-13T12:10:27;99436.50;;;5.73;60.09
28510;BME280;15723;55.684;37.928;2023-02-13T12:13:01;99435.88;;;5.68;59.72
28510;BME280;15723;55.684;37.928;2023-02-13T12:15:32;99435.63;;;5.55;61.32
28510;BME280;15723;55.684;37.928;2023-02-13T12:25:47;99412.75;;;5.81;60.19
28510;BME280;15723;55.684;37.928;2023-02-13T12:36:30;99407.56;;;6.11;59.76
28510;BME280;15723;55.684;37.928;2023-02-13T12:49:20;99402.03;;;6.14;59.78
28510;BME280;15723;55.684;37.928;2023-02-13T12:51:55;99393.06;;;6.13;60.15
28510;BME280;15723;55.684;37.928;2023-02-13T12:57:05;99399.59;;;5.92;61.21
28510;BME280;15723;55.684;37.928;2023-02-13T12:59:38;99383.59;;;5.72;61.22
28510;BME280;15723;55.684;37.928;2023-02-13T13:02:32;99382.16;;;5.82;61.08
28510;BME280;15723;55.684;37.928;2023-02-13T13:15:24;99358.66;;;5.68;61.30
28510;BME280;15723;55.684;37.928;2023-02-13T13:18:00;99357.22;;;5.95;60.96
28510;BME280;15723;55.684;37.928;2023-02-13T13:20:41;99358.88;;;5.81;61.31
28510;BME280;15723;55.684;37.928;2023-02-13T13:25:42;99361.50;;;6.15;60.44
28510;BME280;15723;55.684;37.928;2023-02-13T13:28:13;99359.06;;;5.60;61.46
28510;BME280;15723;55.684;37.928;2023-02-13T13:30:40;99359.94;;;5.61;61.58
28510;BME280;15723;55.684;37.928;2023-02-13T13:35:40;99370.75;;;5.94;60.63
28510;BME280;15723;55.684;37.928;2023-02-13T13:41:25;99360.50;;;5.50;61.85
28510;BME280;15723;55.684;37.928;2023-02-13T13:51:32;99363.75;;;5.40;61.73
28510;BME280;15723;55.684;37.928;2023-02-13T13:56:24;99352.91;;;5.58;61.11
28510;BME280;15723;55.684;37.928;2023-02-13T13:58:49;99345.13;;;5.70;61.19
28510;BME280;15723;55.684;37.928;2023-02-13T14:01:17;99345.56;;;5.78;61.08
28510;BME280;15723;55.684;37.928;2023-02-13T14:03:44;99337.25;;;6.00;60.46
28510;BME280;15723;55.684;37.928;2023-02-13T14:06:11;99329.47;;;5.93;60.66
28510;BME280;15723;55.684;37.928;2023-02-13T14:16:47;99326.72;;;4.00;66.55
28510;BME280;15723;55.684;37.928;2023-02-13T14:19:32;99324.59;;;3.69;68.13
28510;BME280;15723;55.684;37.928;2023-02-13T14:24:56;99314.41;;;3.78;67.69
28510;BME280;15723;55.684;37.928;2023-02-13T14:27:24;99308.88;;;3.21;68.98
28510;BME280;15723;55.684;37.928;2023-02-13T14:29:52;99309.44;;;3.09;69.63
28510;BME280;15723;55.684;37.928;2023-02-13T14:32:35;99316.31;;;2.94;70.38
28510;BME280;15723;55.684;37.928;2023-02-13T14:35:04;99303.16;;;2.88;70.12
28510;BME280;15723;55.684;37.928;2023-02-13T14:37:34;99310.06;;;2.73;70.38
28510;BME280;15723;55.684;37.928;2023-02-13T14:40:08;99304.47;;;3.20;69.10
28510;BME280;15723;55.684;37.928;2023-02-13T14:42:35;99304.78;;;2.92;70.46
28510;BME280;15723;55.684;37.928;2023-02-13T14:45:04;99304.06;;;3.09;69.97
28510;BME280;15723;55.684;37.928;2023-02-13T14:47:37;99305.06;;;3.06;69.99
28510;BME280;15723;55.684;37.928;2023-02-13T14:50:12;99297.66;;;2.91;70.29
28510;BME280;15723;55.684;37.928;2023-02-13T14:52:41;99297.09;;;3.05;70.60
28510;BME280;15723;55.684;37.928;2023-02-13T14:57:52;99280.94;;;3.06;70.77
28510;BME280;15723;55.684;37.928;2023-02-13T15:03:25;99282.78;;;2.84;70.90
28510;BME280;15723;55.684;37.928;2023-02-13T15:05:53;99273.94;;;2.82;71.26
28510;BME280;15723;55.684;37.928;2023-02-13T15:08:25;99273.00;;;2.63;71.74
28510;BME280;15723;55.684;37.928;2023-02-13T15:10:53;99267.66;;;2.63;71.87
28510;BME280;15723;55.684;37.928;2023-02-13T15:13:23;99260.09;;;2.50;72.23
28510;BME280;15723;55.684;37.928;2023-02-13T15:15:53;99249.50;;;2.90;72.32
28510;BME280;15723;55.684;37.928;2023-02-13T15:18:23;99239.63;;;2.90;70.76
28510;BME280;15723;55.684;37.928;2023-02-13T15:20:56;99241.16;;;2.96;71.63
28510;BME280;15723;55.684;37.928;2023-02-13T15:23:25;99228.38;;;2.62;72.03
28510;BME280;15723;55.684;37.928;2023-02-13T15:26:03;99225.44;;;2.68;72.47
28510;BME280;15723;55.684;37.928;2023-02-13T15:28:30;99223.03;;;2.62;73.22
28510;BME280;15723;55.684;37.928;2023-02-13T15:33:24;99203.56;;;2.97;72.93
28510;BME280;15723;55.684;37.928;2023-02-13T15:35:57;99205.59;;;2.51;73.43
28510;BME280;15723;55.684;37.928;2023-02-13T15:38:25;99205.50;;;2.53;73.45
28510;BME280;15723;55.684;37.928;2023-02-13T15:40:52;99195.66;;;2.33;74.03
28510;BME280;15723;55.684;37.928;2023-02-13T15:43:21;99193.66;;;2.38;73.93
28510;BME280;15723;55.684;37.928;2023-02-13T15:45:48;99194.72;;;2.55;73.55
28510;BME280;15723;55.684;37.928;2023-02-13T15:48:15;99191.91;;;2.58;73.47